sensor_id;sensor_type;location;lat;lon;timestamp;temperature;humidity
16134;DHT22;8172;45.018;5.972;2022-12-11T00:05:08;-2.50;77.00
16134;DHT22;8172;45.018;5.972;2022-12-11T00:10:15;-2.60;77.20
16134;DHT22;8172;45.018;5.972;2022-12-11T00:15:22;-2.60;77.30
16134;DHT22;8172;45.018;5.972;2022-12-11T00:20:29;-2.70;77.20
16134;DHT22;8172;45.018;5.972;2022-12-11T00:25:41;-2.70;77.40
16134;DHT22;8172;45.018;5.972;2022-12-11T00:30:47;-2.70;77.30
16134;DHT22;8172;45.018;5.972;2022-12-11T00:35:54;-2.70;77.20
16134;DHT22;8172;45.018;5.972;2022-12-11T00:41:02;-2.70;77.20
16134;DHT22;8172;45.018;5.972;2022-12-11T00:46:09;-2.70;77.30
16134;DHT22;8172;45.018;5.972;2022-12-11T00:51:17;-2.70;77.30
16134;DHT22;8172;45.018;5.972;2022-12-11T00:56:24;-2.70;77.50
16134;DHT22;8172;45.018;5.972;2022-12-11T01:01:31;-2.60;77.40
16134;DHT22;8172;45.018;5.972;2022-12-11T01:06:39;-2.50;77.20
16134;DHT22;8172;45.018;5.972;2022-12-11T01:11:46;-2.40;77.20
16134;DHT22;8172;45.018;5.972;2022-12-11T01:16:53;-2.40;76.90
16134;DHT22;8172;45.018;5.972;2022-12-11T01:22:00;-2.40;76.80
16134;DHT22;8172;45.018;5.972;2022-12-11T01:27:07;-2.50;76.70
16134;DHT22;8172;45.018;5.972;2022-12-11T01:32:14;-2.60;76.80
16134;DHT22;8172;45.018;5.972;2022-12-11T01:37:21;-2.70;76.50
16134;DHT22;8172;45.018;5.972;2022-12-11T01:42:29;-2.90;76.60
16134;DHT22;8172;45.018;5.972;2022-12-11T01:47:35;-3.00;77.00
16134;DHT22;8172;45.018;5.972;2022-12-11T01:52:45;-2.90;77.10
16134;DHT22;8172;45.018;5.972;2022-12-11T01:57:52;-3.00;77.00
16134;DHT22;8172;45.018;5.972;2022-12-11T02:03:00;-3.00;77.20
16134;DHT22;8172;45.018;5.972;2022-12-11T02:08:07;-3.10;77.10
16134;DHT22;8172;45.018;5.972;2022-12-11T02:13:19;-3.10;77.40
16134;DHT22;8172;45.018;5.972;2022-12-11T02:18:29;-3.00;77.40
16134;DHT22;8172;45.018;5.972;2022-12-11T02:28:42;-3.00;77.20
16134;DHT22;8172;45.018;5.972;2022-12-11T02:33:54;-3.00;77.20
16134;DHT22;8172;45.018;5.972;2022-12-11T02:39:01;-3.00;77.10
16134;DHT22;8172;45.018;5.972;2022-12-11T02:44:11;-3.10;77.20
16134;DHT22;8172;45.018;5.972;2022-12-11T02:49:20;-3.10;77.10
16134;DHT22;8172;45.018;5.972;2022-12-11T02:54:31;-3.10;77.40
16134;DHT22;8172;45.018;5.972;2022-12-11T02:59:41;-3.10;77.50
16134;DHT22;8172;45.018;5.972;2022-12-11T03:04:48;-3.00;77.40
16134;DHT22;8172;45.018;5.972;2022-12-11T03:09:56;-3.10;77.20
16134;DHT22;8172;45.018;5.972;2022-12-11T03:15:06;-3.10;77.10
16134;DHT22;8172;45.018;5.972;2022-12-11T03:25:25;-3.10;77.50
16134;DHT22;8172;45.018;5.972;2022-12-11T03:30:34;-3.10;77.50
16134;DHT22;8172;45.018;5.972;2022-12-11T03:35:44;-3.00;77.40
16134;DHT22;8172;45.018;5.972;2022-12-11T03:40:53;-3.20;77.20
16134;DHT22;8172;45.018;5.972;2022-12-11T03:46:02;-3.30;77.50
16134;DHT22;8172;45.018;5.972;2022-12-11T03:51:10;-3.30;77.60
16134;DHT22;8172;45.018;5.972;2022-12-11T03:56:20;-3.40;77.70
16134;DHT22;8172;45.018;5.972;2022-12-11T04:01:27;-3.50;77.70
16134;DHT22;8172;45.018;5.972;2022-12-11T04:06:34;-3.50;77.80
16134;DHT22;8172;45.018;5.972;2022-12-11T04:11:41;-3.50;77.80
16134;DHT22;8172;45.018;5.972;2022-12-11T04:16:48;-3.40;77.80
16134;DHT22;8172;45.018;5.972;2022-12-11T04:21:56;-3.40;77.80
16134;DHT22;8172;45.018;5.972;2022-12-11T04:27:06;-3.40;77.80
16134;DHT22;8172;45.018;5.972;2022-12-11T04:32:13;-3.40;77.70
16134;DHT22;8172;45.018;5.972;2022-12-11T04:37:21;-3.50;77.60
16134;DHT22;8172;45.018;5.972;2022-12-11T04:42:28;-3.60;77.80
16134;DHT22;8172;45.018;5.972;2022-12-11T04:47:37;-3.60;78.00
16134;DHT22;8172;45.018;5.972;2022-12-11T04:52:44;-3.70;78.00
16134;DHT22;8172;45.018;5.972;2022-12-11T04:57:51;-3.70;78.20
16134;DHT22;8172;45.018;5.972;2022-12-11T05:02:58;-3.70;78.10
16134;DHT22;8172;45.018;5.972;2022-12-11T05:08:05;-3.70;78.20
16134;DHT22;8172;45.018;5.972;2022-12-11T05:13:13;-3.70;78.30
16134;DHT22;8172;45.018;5.972;2022-12-11T05:18:20;-3.70;78.40
16134;DHT22;8172;45.018;5.972;2022-12-11T05:23:27;-3.70;78.40
16134;DHT22;8172;45.018;5.972;2022-12-11T05:28:36;-3.60;78.40
16134;DHT22;8172;45.018;5.972;2022-12-11T05:33:45;-3.60;78.00
16134;DHT22;8172;45.018;5.972;2022-12-11T05:38:53;-3.40;78.00
16134;DHT22;8172;45.018;5.972;2022-12-11T05:44:00;-3.30;77.90
16134;DHT22;8172;45.018;5.972;2022-12-11T05:49:08;-3.20;77.90
16134;DHT22;8172;45.018;5.972;2022-12-11T05:54:16;-3.00;77.50
16134;DHT22;8172;45.018;5.972;2022-12-11T05:59:23;-3.00;77.30
16134;DHT22;8172;45.018;5.972;2022-12-11T06:04:31;-3.00;76.70
16134;DHT22;8172;45.018;5.972;2022-12-11T06:09:39;-3.10;76.70
16134;DHT22;8172;45.018;5.972;2022-12-11T06:14:46;-3.10;76.70
16134;DHT22;8172;45.018;5.972;2022-12-11T06:19:53;-3.20;76.50
16134;DHT22;8172;45.018;5.972;2022-12-11T06:25:00;-3.30;76.50
16134;DHT22;8172;45.018;5.972;2022-12-11T06:30:07;-3.30;76.40
16134;DHT22;8172;45.018;5.972;2022-12-11T06:35:14;-3.30;76.30
16134;DHT22;8172;45.018;5.972;2022-12-11T06:40:21;-3.40;76.40
16134;DHT22;8172;45.018;5.972;2022-12-11T06:45:28;-3.30;76.50
16134;DHT22;8172;45.018;5.972;2022-12-11T06:50:37;-3.40;76.20
16134;DHT22;8172;45.018;5.972;2022-12-11T06:55:44;-3.50;76.40
16134;DHT22;8172;45.018;5.972;2022-12-11T07:00:51;-3.50;76.80
16134;DHT22;8172;45.018;5.972;2022-12-11T07:06:00;-3.60;76.40
16134;DHT22;8172;45.018;5.972;2022-12-11T07:11:10;-3.70;76.40
16134;DHT22;8172;45.018;5.972;2022-12-11T07:16:18;-3.80;76.40
16134;DHT22;8172;45.018;5.972;2022-12-11T07:21:25;-3.90;76.50
16134;DHT22;8172;45.018;5.972;2022-12-11T07:26:32;-4.00;76.50
16134;DHT22;8172;45.018;5.972;2022-12-11T07:31:39;-4.00;76.80
16134;DHT22;8172;45.018;5.972;2022-12-11T07:36:46;-4.10;76.80
16134;DHT22;8172;45.018;5.972;2022-12-11T07:41:53;-4.10;76.70
16134;DHT22;8172;45.018;5.972;2022-12-11T07:47:00;-4.20;77.00
16134;DHT22;8172;45.018;5.972;2022-12-11T07:52:07;-4.20;77.10
16134;DHT22;8172;45.018;5.972;2022-12-11T07:57:14;-4.20;77.10
16134;DHT22;8172;45.018;5.972;2022-12-11T08:02:22;-4.20;77.30
16134;DHT22;8172;45.018;5.972;2022-12-11T08:07:29;-4.20;77.10
16134;DHT22;8172;45.018;5.972;2022-12-11T08:12:36;-4.10;77.20
16134;DHT22;8172;45.018;5.972;2022-12-11T08:17:43;-4.10;77.20
16134;DHT22;8172;45.018;5.972;2022-12-11T08:22:50;-4.00;76.90
16134;DHT22;8172;45.018;5.972;2022-12-11T08:27:58;-4.10;76.70
16134;DHT22;8172;45.018;5.972;2022-12-11T08:33:06;-4.00;76.80
16134;DHT22;8172;45.018;5.972;2022-12-11T08:38:13;-4.10;76.70
16134;DHT22;8172;45.018;5.972;2022-12-11T08:43:24;-4.10;76.50
16134;DHT22;8172;45.018;5.972;2022-12-11T08:48:33;-4.00;76.70
16134;DHT22;8172;45.018;5.972;2022-12-11T08:53:40;-4.00;76.60
16134;DHT22;8172;45.018;5.972;2022-12-11T08:58:47;-3.90;76.50
16134;DHT22;8172;45.018;5.972;2022-12-11T09:03:55;-4.00;76.80
16134;DHT22;8172;45.018;5.972;2022-12-11T09:09:03;-3.90;76.80
16134;DHT22;8172;45.018;5.972;2022-12-11T09:14:10;-3.80;76.70
16134;DHT22;8172;45.018;5.972;2022-12-11T09:19:18;-3.80;76.90
16134;DHT22;8172;45.018;5.972;2022-12-11T09:24:24;-3.70;76.80
16134;DHT22;8172;45.018;5.972;2022-12-11T09:29:32;-3.60;76.80
16134;DHT22;8172;45.018;5.972;2022-12-11T09:34:39;-3.60;76.40
16134;DHT22;8172;45.018;5.972;2022-12-11T09:39:46;-3.60;76.40
16134;DHT22;8172;45.018;5.972;2022-12-11T09:44:59;-3.70;76.40
16134;DHT22;8172;45.018;5.972;2022-12-11T09:55:19;-3.60;76.90
16134;DHT22;8172;45.018;5.972;2022-12-11T10:10:52;-2.90;76.80
16134;DHT22;8172;45.018;5.972;2022-12-11T10:16:06;-2.60;76.50
16134;DHT22;8172;45.018;5.972;2022-12-11T10:21:05;-2.50;76.10
16134;DHT22;8172;45.018;5.972;2022-12-11T10:26:16;-2.30;75.80
16134;DHT22;8172;45.018;5.972;2022-12-11T10:31:31;-2.20;75.60
16134;DHT22;8172;45.018;5.972;2022-12-11T10:36:35;-2.10;75.40
16134;DHT22;8172;45.018;5.972;2022-12-11T10:41:46;-2.00;75.20
16134;DHT22;8172;45.018;5.972;2022-12-11T10:52:09;-1.80;75.00
16134;DHT22;8172;45.018;5.972;2022-12-11T10:57:15;-1.70;74.90
16134;DHT22;8172;45.018;5.972;2022-12-11T11:02:26;-1.60;74.90
16134;DHT22;8172;45.018;5.972;2022-12-11T11:07:32;-1.50;74.70
16134;DHT22;8172;45.018;5.972;2022-12-11T11:12:44;-1.40;74.60
16134;DHT22;8172;45.018;5.972;2022-12-11T11:17:51;-1.40;74.40
16134;DHT22;8172;45.018;5.972;2022-12-11T11:23:02;-1.30;74.10
16134;DHT22;8172;45.018;5.972;2022-12-11T11:33:21;-1.30;74.00
16134;DHT22;8172;45.018;5.972;2022-12-11T11:38:32;-1.30;74.10
16134;DHT22;8172;45.018;5.972;2022-12-11T11:43:42;-1.30;74.20
16134;DHT22;8172;45.018;5.972;2022-12-11T11:53:56;-1.20;74.20
16134;DHT22;8172;45.018;5.972;2022-12-11T12:04:14;-1.10;74.20
16134;DHT22;8172;45.018;5.972;2022-12-11T12:14:34;-1.00;74.50
16134;DHT22;8172;45.018;5.972;2022-12-11T12:24:58;-1.00;74.40
16134;DHT22;8172;45.018;5.972;2022-12-11T12:30:07;-1.00;74.70
16134;DHT22;8172;45.018;5.972;2022-12-11T12:45:35;-0.80;74.60
16134;DHT22;8172;45.018;5.972;2022-12-11T12:50:43;-0.70;74.70
16134;DHT22;8172;45.018;5.972;2022-12-11T12:55:51;-0.60;74.70
16134;DHT22;8172;45.018;5.972;2022-12-11T13:06:09;-0.50;74.50
16134;DHT22;8172;45.018;5.972;2022-12-11T13:11:19;-0.50;74.60
16134;DHT22;8172;45.018;5.972;2022-12-11T13:21:37;-0.40;74.90
16134;DHT22;8172;45.018;5.972;2022-12-11T13:26:44;-0.30;74.90
16134;DHT22;8172;45.018;5.972;2022-12-11T13:31:56;-0.20;74.80
16134;DHT22;8172;45.018;5.972;2022-12-11T13:37:03;-0.20;74.20
16134;DHT22;8172;45.018;5.972;2022-12-11T13:47:23;-0.50;73.20
16134;DHT22;8172;45.018;5.972;2022-12-11T13:52:30;-0.70;72.90
16134;DHT22;8172;45.018;5.972;2022-12-11T13:57:44;-1.00;72.80
16134;DHT22;8172;45.018;5.972;2022-12-11T14:02:47;-1.30;72.70
16134;DHT22;8172;45.018;5.972;2022-12-11T14:07:57;-1.50;72.80
16134;DHT22;8172;45.018;5.972;2022-12-11T14:13:12;-1.70;73.00
16134;DHT22;8172;45.018;5.972;2022-12-11T14:18:19;-1.80;73.10
16134;DHT22;8172;45.018;5.972;2022-12-11T14:23:28;-1.90;73.10
16134;DHT22;8172;45.018;5.972;2022-12-11T14:28:39;-1.90;73.00
16134;DHT22;8172;45.018;5.972;2022-12-11T14:33:48;-2.00;72.90
16134;DHT22;8172;45.018;5.972;2022-12-11T14:38:59;-2.00;72.90
16134;DHT22;8172;45.018;5.972;2022-12-11T14:44:07;-2.10;72.90
16134;DHT22;8172;45.018;5.972;2022-12-11T14:49:19;-2.10;72.90
16134;DHT22;8172;45.018;5.972;2022-12-11T14:54:28;-2.20;72.80
16134;DHT22;8172;45.018;5.972;2022-12-11T14:59:40;-2.20;72.70
16134;DHT22;8172;45.018;5.972;2022-12-11T15:09:56;-2.30;72.60
16134;DHT22;8172;45.018;5.972;2022-12-11T15:15:05;-2.40;72.50
16134;DHT22;8172;45.018;5.972;2022-12-11T15:25:25;-2.40;72.30
16134;DHT22;8172;45.018;5.972;2022-12-11T15:30:34;-2.50;72.20
16134;DHT22;8172;45.018;5.972;2022-12-11T15:35:51;-2.50;72.10
16134;DHT22;8172;45.018;5.972;2022-12-11T15:40:51;-2.50;72.10
16134;DHT22;8172;45.018;5.972;2022-12-11T15:45:58;-2.50;72.10
16134;DHT22;8172;45.018;5.972;2022-12-11T15:51:05;-2.60;71.80
16134;DHT22;8172;45.018;5.972;2022-12-11T15:56:13;-2.60;71.60
16134;DHT22;8172;45.018;5.972;2022-12-11T16:01:21;-2.70;71.50
16134;DHT22;8172;45.018;5.972;2022-12-11T16:06:28;-2.80;71.40
16134;DHT22;8172;45.018;5.972;2022-12-11T16:11:35;-2.80;71.40
16134;DHT22;8172;45.018;5.972;2022-12-11T16:16:42;-2.90;71.40
16134;DHT22;8172;45.018;5.972;2022-12-11T16:21:49;-2.90;71.40
16134;DHT22;8172;45.018;5.972;2022-12-11T16:26:57;-2.90;71.10
16134;DHT22;8172;45.018;5.972;2022-12-11T16:32:06;-3.00;71.00
16134;DHT22;8172;45.018;5.972;2022-12-11T16:37:13;-3.00;70.90
16134;DHT22;8172;45.018;5.972;2022-12-11T16:42:20;-3.10;70.80
16134;DHT22;8172;45.018;5.972;2022-12-11T16:47:29;-3.10;70.70
16134;DHT22;8172;45.018;5.972;2022-12-11T16:52:36;-3.20;70.70
16134;DHT22;8172;45.018;5.972;2022-12-11T16:57:44;-3.20;70.80
16134;DHT22;8172;45.018;5.972;2022-12-11T17:02:52;-3.30;70.70
16134;DHT22;8172;45.018;5.972;2022-12-11T17:08:00;-3.30;70.50
16134;DHT22;8172;45.018;5.972;2022-12-11T17:13:07;-3.30;70.50
16134;DHT22;8172;45.018;5.972;2022-12-11T17:18:16;-3.40;70.40
16134;DHT22;8172;45.018;5.972;2022-12-11T17:23:23;-3.40;70.50
16134;DHT22;8172;45.018;5.972;2022-12-11T17:28:32;-3.40;70.60
16134;DHT22;8172;45.018;5.972;2022-12-11T17:33:39;-3.40;70.60
16134;DHT22;8172;45.018;5.972;2022-12-11T17:38:47;-3.40;70.60
16134;DHT22;8172;45.018;5.972;2022-12-11T17:43:55;-3.40;70.70
16134;DHT22;8172;45.018;5.972;2022-12-11T17:49:05;-3.40;70.80
16134;DHT22;8172;45.018;5.972;2022-12-11T17:54:14;-3.40;70.90
16134;DHT22;8172;45.018;5.972;2022-12-11T17:59:21;-3.40;70.90
16134;DHT22;8172;45.018;5.972;2022-12-11T18:04:29;-3.40;70.90
16134;DHT22;8172;45.018;5.972;2022-12-11T18:09:39;-3.40;70.90
16134;DHT22;8172;45.018;5.972;2022-12-11T18:14:47;-3.30;70.80
16134;DHT22;8172;45.018;5.972;2022-12-11T18:19:55;-3.40;70.90
16134;DHT22;8172;45.018;5.972;2022-12-11T18:25:02;-3.40;71.20
16134;DHT22;8172;45.018;5.972;2022-12-11T18:30:12;-3.30;71.30
16134;DHT22;8172;45.018;5.972;2022-12-11T18:35:19;-3.30;71.40
16134;DHT22;8172;45.018;5.972;2022-12-11T18:40:26;-3.30;71.40
16134;DHT22;8172;45.018;5.972;2022-12-11T18:45:34;-3.20;71.10
16134;DHT22;8172;45.018;5.972;2022-12-11T18:50:43;-3.20;71.00
16134;DHT22;8172;45.018;5.972;2022-12-11T18:55:50;-3.30;70.90
16134;DHT22;8172;45.018;5.972;2022-12-11T19:01:04;-3.30;70.70
16134;DHT22;8172;45.018;5.972;2022-12-11T19:06:13;-3.40;70.50
16134;DHT22;8172;45.018;5.972;2022-12-11T19:11:23;-3.40;70.40
16134;DHT22;8172;45.018;5.972;2022-12-11T19:16:33;-3.50;70.30
16134;DHT22;8172;45.018;5.972;2022-12-11T19:21:42;-3.50;70.20
16134;DHT22;8172;45.018;5.972;2022-12-11T19:26:50;-3.60;70.30
16134;DHT22;8172;45.018;5.972;2022-12-11T19:31:57;-3.60;70.20
16134;DHT22;8172;45.018;5.972;2022-12-11T19:37:05;-3.60;70.10
16134;DHT22;8172;45.018;5.972;2022-12-11T19:42:12;-3.60;70.10
16134;DHT22;8172;45.018;5.972;2022-12-11T19:47:18;-3.70;70.20
16134;DHT22;8172;45.018;5.972;2022-12-11T19:52:25;-3.70;70.10
16134;DHT22;8172;45.018;5.972;2022-12-11T19:57:33;-3.70;70.20
16134;DHT22;8172;45.018;5.972;2022-12-11T20:02:40;-3.70;70.20
16134;DHT22;8172;45.018;5.972;2022-12-11T20:07:47;-3.70;70.20
16134;DHT22;8172;45.018;5.972;2022-12-11T20:12:54;-3.70;70.20
16134;DHT22;8172;45.018;5.972;2022-12-11T20:18:01;-3.70;70.20
16134;DHT22;8172;45.018;5.972;2022-12-11T20:23:08;-3.70;70.30
16134;DHT22;8172;45.018;5.972;2022-12-11T20:28:15;-3.70;70.20
16134;DHT22;8172;45.018;5.972;2022-12-11T20:33:23;-3.70;70.00
16134;DHT22;8172;45.018;5.972;2022-12-11T20:38:30;-3.70;69.90
16134;DHT22;8172;45.018;5.972;2022-12-11T20:43:42;-3.70;69.90
16134;DHT22;8172;45.018;5.972;2022-12-11T20:48:49;-3.80;69.70
16134;DHT22;8172;45.018;5.972;2022-12-11T20:53:57;-3.80;69.60
16134;DHT22;8172;45.018;5.972;2022-12-11T20:59:04;-3.80;69.60
16134;DHT22;8172;45.018;5.972;2022-12-11T21:04:11;-3.90;69.50
16134;DHT22;8172;45.018;5.972;2022-12-11T21:09:18;-3.90;69.50
16134;DHT22;8172;45.018;5.972;2022-12-11T21:14:26;-3.90;69.50
16134;DHT22;8172;45.018;5.972;2022-12-11T21:19:34;-4.00;69.40
16134;DHT22;8172;45.018;5.972;2022-12-11T21:24:42;-4.00;69.50
16134;DHT22;8172;45.018;5.972;2022-12-11T21:29:50;-4.10;69.50
16134;DHT22;8172;45.018;5.972;2022-12-11T21:34:57;-4.10;69.50
16134;DHT22;8172;45.018;5.972;2022-12-11T21:40:04;-4.10;69.60
16134;DHT22;8172;45.018;5.972;2022-12-11T21:45:11;-4.10;69.60
16134;DHT22;8172;45.018;5.972;2022-12-11T21:50:19;-4.10;69.60
16134;DHT22;8172;45.018;5.972;2022-12-11T21:55:27;-4.10;69.60
16134;DHT22;8172;45.018;5.972;2022-12-11T22:00:36;-4.10;69.50
16134;DHT22;8172;45.018;5.972;2022-12-11T22:05:44;-4.10;69.50
16134;DHT22;8172;45.018;5.972;2022-12-11T22:10:51;-4.10;69.60
16134;DHT22;8172;45.018;5.972;2022-12-11T22:15:59;-4.10;69.60
16134;DHT22;8172;45.018;5.972;2022-12-11T22:21:07;-4.10;69.60
16134;DHT22;8172;45.018;5.972;2022-12-11T22:26:18;-4.10;69.70
16134;DHT22;8172;45.018;5.972;2022-12-11T22:31:25;-4.10;69.60
16134;DHT22;8172;45.018;5.972;2022-12-11T22:36:32;-4.10;69.60
16134;DHT22;8172;45.018;5.972;2022-12-11T22:41:40;-4.10;69.60
16134;DHT22;8172;45.018;5.972;2022-12-11T22:46:48;-4.10;69.40
16134;DHT22;8172;45.018;5.972;2022-12-11T22:51:55;-4.10;69.60
16134;DHT22;8172;45.018;5.972;2022-12-11T22:57:02;-4.10;69.70
16134;DHT22;8172;45.018;5.972;2022-12-11T23:02:09;-4.10;69.70
16134;DHT22;8172;45.018;5.972;2022-12-11T23:07:16;-4.10;69.70
16134;DHT22;8172;45.018;5.972;2022-12-11T23:12:24;-4.10;69.80
16134;DHT22;8172;45.018;5.972;2022-12-11T23:17:30;-4.00;69.70
16134;DHT22;8172;45.018;5.972;2022-12-11T23:22:39;-4.00;69.70
16134;DHT22;8172;45.018;5.972;2022-12-11T23:27:46;-4.00;69.60
16134;DHT22;8172;45.018;5.972;2022-12-11T23:32:55;-4.00;69.70
16134;DHT22;8172;45.018;5.972;2022-12-11T23:38:02;-4.00;69.80
16134;DHT22;8172;45.018;5.972;2022-12-11T23:43:10;-4.00;69.80
16134;DHT22;8172;45.018;5.972;2022-12-11T23:48:18;-4.00;70.10
16134;DHT22;8172;45.018;5.972;2022-12-11T23:53:26;-4.00;70.00
16134;DHT22;8172;45.018;5.972;2022-12-11T23:58:35;-3.90;70.10
